Time;durP1;ratioP1;P1;durP2;ratioP2;P2;SDS_P1;SDS_P2;PMS_P1;PMS_P2;Temp;Humidity;BMP_temperature;BMP_pressure;BME280_temperature;BME280_humidity;BME280_pressure;Samples;Min_cycle;Max_cycle;Signal;HPM_P1;HPM_P2
2023/04/11 00:01:48;;;;;;;13.98;2.28;;;;;;;11.92;79.43;101043.28;5071623;28;20057;-64
2023/04/11 00:04:16;;;;;;;17.92;3.35;;;;;;;12.01;78.46;101051.59;5073428;28;20053;-63
2023/04/11 00:06:43;;;;;;;14.27;2.28;;;;;;;11.92;78.45;101062.59;5073943;28;20058;-65
2023/04/11 00:09:11;;;;;;;11.30;2.42;;;;;;;11.76;77.87;101068.78;5075069;28;20131;-64
2023/04/11 00:11:38;;;;;;;13.90;2.30;;;;;;;12.20;78.85;101063.25;5071508;28;20452;-65
2023/04/11 00:14:07;;;;;;;13.45;2.65;;;;;;;12.11;77.31;101068.72;5075475;28;20115;-64
2023/04/11 00:16:35;;;;;;;15.87;3.00;;;;;;;11.84;77.38;101071.59;5074096;28;20052;-64
2023/04/11 00:19:02;;;;;;;14.23;2.33;;;;;;;12.01;76.18;101074.50;5074771;28;20047;-64
2023/04/11 00:21:29;;;;;;;14.38;2.70;;;;;;;11.84;76.77;101068.84;5072092;28;20049;-64
2023/04/11 00:23:57;;;;;;;12.00;1.92;;;;;;;11.63;75.77;101075.16;5074216;28;20052;-63
2023/04/11 00:26:24;;;;;;;11.43;2.15;;;;;;;11.53;77.21;101078.13;5068105;28;20716;-64
2023/04/11 00:28:52;;;;;;;16.00;2.28;;;;;;;11.43;77.96;101075.59;5074992;28;20052;-63
2023/04/11 00:31:19;;;;;;;15.15;2.72;;;;;;;11.37;77.49;101077.66;5071827;28;20048;-64
2023/04/11 00:33:47;;;;;;;14.55;2.80;;;;;;;11.48;78.22;101072.72;5074679;28;20412;-63
2023/04/11 00:36:15;;;;;;;13.38;2.50;;;;;;;11.54;76.81;101075.06;5073867;28;20686;-63
2023/04/11 00:38:43;;;;;;;11.32;2.47;;;;;;;11.44;76.01;101069.78;5065139;28;20060;-64
2023/04/11 00:41:10;;;;;;;16.52;2.95;;;;;;;11.29;76.94;101078.41;5072012;28;20407;-64
2023/04/11 00:43:38;;;;;;;13.95;2.03;;;;;;;11.53;77.79;101084.47;5074743;28;20063;-64
2023/04/11 00:46:07;;;;;;;9.82;2.22;;;;;;;11.45;76.03;101076.13;5073379;28;20041;-65
2023/04/11 00:48:35;;;;;;;18.45;2.95;;;;;;;11.75;77.43;101078.22;5073399;28;20063;-63
2023/04/11 00:51:02;;;;;;;12.27;2.72;;;;;;;11.32;74.82;101077.78;5071651;28;20049;-64
2023/04/11 00:53:31;;;;;;;11.32;2.00;;;;;;;11.40;77.49;101073.47;5056871;28;20053;-64
2023/04/11 00:55:59;;;;;;;14.40;2.65;;;;;;;11.59;77.71;101077.72;5072666;28;20060;-64
2023/04/11 00:58:27;;;;;;;13.95;2.70;;;;;;;11.29;75.07;101084.75;5057221;28;20048;-64
2023/04/11 01:00:54;;;;;;;9.43;1.83;;;;;;;11.21;74.62;101090.97;5072738;28;20051;-65
2023/04/11 01:03:22;;;;;;;11.75;2.47;;;;;;;11.15;76.57;101097.72;5056663;28;20095;-64
2023/04/11 01:05:53;;;;;;;16.88;2.65;;;;;;;11.31;77.07;101090.72;5072868;28;20044;-65
2023/04/11 01:08:21;;;;;;;12.18;2.20;;;;;;;11.22;74.96;101089.84;5073127;28;20068;-64
2023/04/11 01:10:49;;;;;;;17.80;2.67;;;;;;;11.14;75.76;101087.81;5072324;28;20055;-66
2023/04/11 01:13:19;;;;;;;13.48;2.75;;;;;;;11.20;76.40;101088.53;5052784;28;20349;-64
2023/04/11 01:15:46;;;;;;;17.23;2.58;;;;;;;11.26;74.87;101092.81;5072143;28;20052;-63
2023/04/11 01:18:14;;;;;;;14.73;2.25;;;;;;;11.24;74.57;101089.53;5071036;28;20052;-65
2023/04/11 01:20:41;;;;;;;15.35;2.63;;;;;;;11.30;73.82;101096.56;5071011;28;20052;-64
2023/04/11 01:23:09;;;;;;;10.88;1.95;;;;;;;11.35;73.16;101110.25;5072167;28;20053;-64
2023/04/11 01:25:37;;;;;;;14.95;2.67;;;;;;;11.37;75.02;101108.00;5072443;28;20407;-65
2023/04/11 01:28:07;;;;;;;15.13;2.45;;;;;;;10.86;74.33;101118.47;5072610;28;20060;-64
2023/04/11 01:30:34;;;;;;;;;;;;;;;10.88;75.88;101102.44;5071090;28;20059;-64
2023/04/11 01:33:02;;;;;;;14.93;2.50;;;;;;;10.89;74.19;101095.78;5071912;28;19925;-64
2023/04/11 01:35:29;;;;;;;20.48;2.75;;;;;;;10.78;74.59;101089.66;5071926;28;20079;-65
2023/04/11 01:37:57;;;;;;;14.90;3.00;;;;;;;11.27;75.16;101099.94;5072184;28;20099;-64
2023/04/11 01:40:24;;;;;;;17.50;2.38;;;;;;;11.10;75.44;101091.50;5071466;28;20040;-65
2023/04/11 01:42:52;;;;;;;16.85;2.88;;;;;;;11.11;73.07;101099.47;5055274;28;20052;-64
2023/04/11 01:45:20;;;;;;;15.88;3.00;;;;;;;10.71;75.90;101107.72;5072032;28;20677;-64
2023/04/11 01:47:50;;;;;;;15.65;2.75;;;;;;;11.08;75.77;101108.34;5070868;28;20052;-65
2023/04/11 01:50:17;;;;;;;15.50;2.70;;;;;;;11.20;75.09;101113.34;5069363;28;20057;-64
2023/04/11 01:52:46;;;;;;;16.17;2.92;;;;;;;11.10;74.07;101110.78;5054683;28;20055;-63
2023/04/11 01:55:14;;;;;;;18.45;2.35;;;;;;;10.97;74.02;101128.97;5073179;28;20045;-64
2023/04/11 01:57:41;;;;;;;17.00;2.85;;;;;;;10.85;73.83;101125.91;5072081;28;20403;-64
2023/04/11 02:00:10;;;;;;;14.77;2.83;;;;;;;10.71;75.05;101121.47;5055752;28;20044;-64
2023/04/11 02:02:44;;;;;;;10.40;2.15;;;;;;;10.82;75.74;101111.91;5070664;28;20578;-64
2023/04/11 02:05:12;;;;;;;18.80;2.40;;;;;;;10.61;74.00;101121.69;5071830;28;20416;-64
2023/04/11 02:07:40;;;;;;;18.30;2.47;;;;;;;10.47;74.98;101129.94;5072105;28;20048;-64
2023/04/11 02:10:07;;;;;;;17.23;2.58;;;;;;;10.44;76.41;101125.03;5073283;28;20053;-64
2023/04/11 02:12:35;;;;;;;15.82;2.60;;;;;;;10.75;76.25;101133.53;5071464;28;20049;-64
2023/04/11 02:15:02;;;;;;;16.80;2.83;;;;;;;10.55;75.16;101136.69;5071947;28;20051;-65
2023/04/11 02:17:29;;;;;;;14.80;2.85;;;;;;;10.88;77.89;101135.50;5071964;28;20492;-64
2023/04/11 02:19:57;;;;;;;16.42;2.95;;;;;;;10.75;76.88;101128.84;5071433;28;20064;-64
2023/04/11 02:22:24;;;;;;;16.95;2.83;;;;;;;10.66;75.94;101132.59;5071671;28;20104;-64
2023/04/11 02:24:52;;;;;;;19.65;2.65;;;;;;;10.81;77.40;101141.41;5051930;28;20061;-64
2023/04/11 02:27:19;;;;;;;18.83;3.13;;;;;;;10.58;76.92;101141.59;5069462;28;20052;-64
2023/04/11 02:29:47;;;;;;;20.75;3.08;;;;;;;10.68;77.31;101117.41;5073197;28;20056;-64
2023/04/11 02:32:15;;;;;;;15.07;2.22;;;;;;;10.88;76.35;101125.28;5069287;28;20048;-64
2023/04/11 02:34:45;;;;;;;18.50;2.67;;;;;;;10.80;75.97;101144.47;5071463;28;20072;-65
2023/04/11 02:37:12;;;;;;;16.80;2.60;;;;;;;10.84;77.90;101146.31;5066036;28;20048;-64
2023/04/11 02:39:39;;;;;;;21.08;3.08;;;;;;;10.58;77.18;101136.91;5051969;28;20049;-64
2023/04/11 02:42:07;;;;;;;23.85;3.35;;;;;;;10.58;76.97;101145.16;5066484;28;20060;-64
2023/04/11 02:44:34;;;;;;;18.23;3.13;;;;;;;10.20;77.97;101149.09;5072883;28;20057;-64
2023/04/11 02:47:02;;;;;;;17.25;2.70;;;;;;;10.60;79.39;101151.16;5070220;28;20048;-64
2023/04/11 02:49:30;;;;;;;16.10;3.53;;;;;;;10.56;77.67;101152.91;5072192;28;20044;-64
2023/04/11 02:51:58;;;;;;;24.48;3.90;;;;;;;10.48;78.07;101144.53;5068173;28;20391;-64
2023/04/11 02:54:25;;;;;;;18.45;2.75;;;;;;;10.71;77.05;101138.84;5050767;28;20063;-64
2023/04/11 02:56:54;;;;;;;17.52;2.83;;;;;;;10.69;76.95;101146.59;5070060;28;20048;-64
2023/04/11 02:59:22;;;;;;;21.60;3.03;;;;;;;10.69;77.70;101146.59;5071396;28;20055;-66
2023/04/11 03:01:49;;;;;;;21.23;3.78;;;;;;;10.39;77.73;101163.66;5067909;28;20055;-64
2023/04/11 03:04:17;;;;;;;19.50;3.47;;;;;;;10.46;77.85;101155.81;5071486;28;20075;-64
2023/04/11 03:07:02;;;;;;;19.75;3.35;;;;;;;10.22;78.55;101165.34;5070248;28;20060;-64
2023/04/11 03:09:29;;;;;;;14.57;2.83;;;;;;;10.50;79.94;101164.28;5071956;28;20059;-64
2023/04/11 03:11:56;;;;;;;19.75;2.72;;;;;;;10.51;79.00;101172.28;5068429;28;20057;-64
2023/04/11 03:14:24;;;;;;;23.98;3.80;;;;;;;10.46;78.87;101174.28;5054843;28;20380;-63
2023/04/11 03:16:51;;;;;;;21.92;4.60;;;;;;;10.42;78.93;101174.09;5069202;28;20048;-64
2023/04/11 03:19:19;;;;;;;21.80;3.10;;;;;;;10.46;79.08;101174.28;5053994;28;20052;-64
2023/04/11 03:21:47;;;;;;;23.58;3.10;;;;;;;10.58;78.60;101182.91;5052778;28;20388;-63
2023/04/11 03:24:16;;;;;;;22.95;3.33;;;;;;;10.41;78.82;101182.66;5071294;28;20053;-63
2023/04/11 03:26:43;;;;;;;14.68;3.13;;;;;;;10.32;79.00;101185.25;5064720;28;20503;-63
2023/04/11 03:29:15;;;;;;;25.35;3.92;;;;;;;10.45;79.55;101195.50;5051565;28;20065;-65
2023/04/11 03:31:56;;;;;;;25.55;3.20;;;;;;;10.61;78.54;101198.81;5051891;28;20060;-64
2023/04/11 03:34:25;;;;;;;19.25;3.28;;;;;;;10.39;78.78;101191.19;5071088;28;20048;-64
2023/04/11 03:36:54;;;;;;;21.85;3.97;;;;;;;10.47;78.95;101186.94;5049898;28;20056;-64
2023/04/11 03:39:22;;;;;;;14.88;2.80;;;;;;;10.38;79.01;101188.72;5066447;28;20064;-63
2023/04/11 03:41:50;;;;;;;13.25;2.50;;;;;;;10.55;79.59;101181.56;5069449;28;20052;-65
2023/04/11 03:44:18;;;;;;;15.43;2.50;;;;;;;10.37;79.95;101198.94;5071069;28;20407;-64
2023/04/11 03:46:46;;;;;;;20.17;3.13;;;;;;;10.48;80.16;101194.09;5069497;28;20059;-64
2023/04/11 03:49:13;;;;;;;16.48;2.72;;;;;;;10.72;78.60;101189.25;5064865;28;20424;-64
2023/04/11 03:51:41;;;;;;;18.33;2.63;;;;;;;10.68;78.91;101191.81;5064746;28;20060;-64
2023/04/11 03:54:09;;;;;;;19.42;2.80;;;;;;;10.48;79.23;101197.66;5073060;28;20081;-64
2023/04/11 03:56:39;;;;;;;24.75;3.05;;;;;;;10.59;78.47;101203.81;5054474;28;20049;-64
2023/04/11 03:59:12;;;;;;;22.52;3.78;;;;;;;10.29;79.16;101199.63;5074345;28;20388;-64
2023/04/11 04:01:50;;;;;;;15.60;2.88;;;;;;;10.46;80.88;101199.09;5072650;28;20048;-65
2023/04/11 04:04:17;;;;;;;21.65;2.53;;;;;;;10.30;80.17;101198.50;5074645;28;20048;-65
2023/04/11 04:06:49;;;;;;;18.73;3.28;;;;;;;10.51;79.63;101199.00;5056875;28;20044;-64
2023/04/11 04:09:17;;;;;;;26.85;3.83;;;;;;;10.77;78.39;101202.94;5074035;28;20056;-65
2023/04/11 04:11:51;;;;;;;19.27;3.17;;;;;;;10.86;77.35;101185.38;5072965;28;20048;-65
2023/04/11 04:14:26;;;;;;;19.20;3.42;;;;;;;10.83;78.08;101201.72;5074031;28;20048;-65
2023/04/11 04:16:54;;;;;;;19.52;3.38;;;;;;;10.89;78.33;101192.25;5071868;28;20496;-65
2023/04/11 04:19:21;;;;;;;19.08;3.05;;;;;;;10.97;77.79;101202.56;5073762;28;20063;-65
2023/04/11 04:21:49;;;;;;;24.13;3.55;;;;;;;10.77;77.48;101192.75;5072628;28;20056;-65
2023/04/11 04:24:17;;;;;;;17.15;2.90;;;;;;;11.02;78.46;101203.28;5053668;28;20079;-64
2023/04/11 04:27:00;;;;;;;14.88;2.78;;;;;;;10.66;76.82;101196.78;5067323;28;20044;-65
2023/04/11 04:29:38;;;;;;;19.67;3.33;;;;;;;10.42;78.48;101189.78;5058862;28;20052;-66
2023/04/11 04:32:11;;;;;;;19.08;3.08;;;;;;;10.46;78.70;101196.31;5072597;28;20064;-65
2023/04/11 04:34:53;;;;;;;18.05;3.03;;;;;;;10.64;79.48;101193.53;5067290;28;20048;-65
2023/04/11 04:37:38;;;;;;;17.42;2.95;;;;;;;10.51;78.85;101199.00;5070234;28;20044;-65
2023/04/11 04:40:20;;;;;;;18.90;3.08;;;;;;;10.61;78.46;101190.53;5073753;28;20059;-64
2023/04/11 04:42:57;;;;;;;25.30;3.03;;;;;;;10.68;79.31;101190.97;5061014;28;20053;-66
2023/04/11 04:45:35;;;;;;;15.93;2.85;;;;;;;10.85;77.58;101191.22;5055677;28;20767;-65
2023/04/11 04:48:03;;;;;;;17.83;3.30;;;;;;;10.63;77.99;101191.06;5072689;28;20083;-65
2023/04/11 04:50:31;;;;;;;22.38;2.70;;;;;;;10.70;78.40;101195.06;5054822;28;20329;-67
2023/04/11 04:52:58;;;;;;;17.85;3.45;;;;;;;10.75;77.91;101199.66;5073104;28;20052;-65
2023/04/11 04:55:27;;;;;;;25.67;3.42;;;;;;;10.61;78.55;101198.81;5072136;28;20051;-66
2023/04/11 04:57:55;;;;;;;22.85;3.63;;;;;;;10.43;78.59;101207.91;5072380;28;20045;-65
2023/04/11 05:00:22;;;;;;;22.23;3.95;;;;;;;10.35;79.27;101216.88;5072585;28;20052;-65
2023/04/11 05:02:54;;;;;;;17.92;3.03;;;;;;;10.19;80.63;101210.78;5055505;28;20052;-65
2023/04/11 05:05:25;;;;;;;17.23;2.92;;;;;;;10.26;80.74;101216.75;5072411;28;20052;-65
2023/04/11 05:07:52;;;;;;;19.85;3.33;;;;;;;10.33;80.37;101208.09;5055367;28;20044;-65
2023/04/11 05:10:20;;;;;;;22.40;3.13;;;;;;;10.40;80.76;101219.53;5072315;28;20060;-65
2023/04/11 05:12:52;;;;;;;16.35;2.97;;;;;;;10.38;81.14;101217.09;5072119;28;20056;-66
2023/04/11 05:15:21;;;;;;;23.95;3.42;;;;;;;10.69;81.73;101218.22;5072884;28;20045;-64
2023/04/11 05:17:49;;;;;;;19.95;3.22;;;;;;;10.25;80.43;101222.56;5071683;28;20047;-66
2023/04/11 05:20:17;;;;;;;18.20;3.03;;;;;;;10.32;80.57;101217.50;5054895;28;20454;-64
2023/04/11 05:22:48;;;;;;;12.52;2.92;;;;;;;10.31;81.05;101233.19;5070712;28;20056;-65
2023/04/11 05:25:16;;;;;;;20.08;3.15;;;;;;;10.44;80.84;101231.59;5052629;28;20053;-64
2023/04/11 05:27:44;;;;;;;21.85;3.08;;;;;;;10.52;80.70;101233.66;5050796;28;20056;-64
2023/04/11 05:30:12;;;;;;;24.83;3.28;;;;;;;10.53;79.45;101235.31;5071611;28;20498;-68
2023/04/11 05:32:41;;;;;;;23.98;3.42;;;;;;;10.92;78.72;101231.03;5054500;28;20049;-64
2023/04/11 05:35:09;;;;;;;17.90;3.50;;;;;;;10.63;78.99;101226.88;5071761;28;20376;-65
2023/04/11 05:37:50;;;;;;;24.80;4.10;;;;;;;10.55;78.89;101231.13;5071382;28;20075;-65
2023/04/11 05:40:17;;;;;;;22.10;3.50;;;;;;;10.53;79.22;101235.31;5073763;28;20056;-65
2023/04/11 05:42:45;;;;;;;19.48;3.60;;;;;;;10.33;79.31;101236.47;5038541;28;20052;-65
2023/04/11 05:45:12;;;;;;;18.92;2.92;;;;;;;10.58;79.54;101241.56;5071397;28;20057;-65
2023/04/11 05:47:40;;;;;;;21.05;3.67;;;;;;;10.74;79.02;101242.94;5072192;28;20036;-65
2023/04/11 05:50:08;;;;;;;17.83;3.10;;;;;;;10.55;80.94;101233.09;5078339;28;20053;-64
2023/04/11 05:52:36;;;;;;;17.10;2.85;;;;;;;10.49;79.48;101237.84;5087949;28;20060;-66
2023/04/11 05:55:04;;;;;;;18.88;2.60;;;;;;;10.15;80.77;101229.00;5038522;28;20048;-65
2023/04/11 05:57:32;;;;;;;23.10;4.72;;;;;;;10.26;80.87;101241.53;5070984;28;20047;-65
2023/04/11 06:00:00;;;;;;;22.60;4.13;;;;;;;10.06;81.37;101250.84;5071505;28;20052;-64
2023/04/11 06:02:40;;;;;;;22.42;2.80;;;;;;;10.12;81.26;101257.16;5072014;28;20054;-64
2023/04/11 06:05:10;;;;;;;20.33;4.00;;;;;;;10.19;80.85;101258.41;5072017;28;20048;-65
2023/04/11 06:07:38;;;;;;;17.83;3.40;;;;;;;10.40;80.90;101247.91;5062969;28;20420;-66
2023/04/11 06:10:07;;;;;;;24.88;3.47;;;;;;;10.45;80.33;101244.25;5061809;28;20057;-65
2023/04/11 06:12:34;;;;;;;15.55;2.58;;;;;;;10.60;79.65;101258.59;5071544;28;20044;-64
2023/04/11 06:15:02;;;;;;;17.30;2.97;;;;;;;10.44;79.42;101256.41;5073193;28;20048;-65
2023/04/11 06:17:29;;;;;;;18.98;3.25;;;;;;;10.37;79.74;101269.72;5064006;28;20052;-66
2023/04/11 06:19:57;;;;;;;22.17;4.00;;;;;;;10.45;79.64;101272.63;5074736;28;20048;-64
2023/04/11 06:22:24;;;;;;;16.25;2.72;;;;;;;10.56;80.01;101262.25;5070629;28;20052;-65
2023/04/11 06:24:51;;;;;;;18.00;3.42;;;;;;;10.48;79.28;101265.69;5066978;28;20056;-66
2023/04/11 06:27:19;;;;;;;26.05;5.38;;;;;;;10.57;79.38;101269.38;5067358;28;20045;-65
2023/04/11 06:29:46;;;;;;;19.58;3.28;;;;;;;10.76;79.14;101273.75;5065480;28;20049;-64
2023/04/11 06:32:13;;;;;;;25.55;3.30;;;;;;;10.88;80.63;101270.56;5068795;28;20057;-65
2023/04/11 06:34:40;;;;;;;24.08;3.95;;;;;;;10.67;79.01;101264.53;5059567;28;20095;-67
2023/04/11 06:37:08;;;;;;;24.05;3.90;;;;;;;10.62;79.74;101274.81;5062534;28;20496;-65
2023/04/11 06:39:35;;;;;;;18.60;2.60;;;;;;;10.81;81.00;101275.63;5050217;28;20399;-66
2023/04/11 06:42:03;;;;;;;23.75;3.38;;;;;;;10.85;78.55;101271.97;5070260;28;20057;-66
2023/04/11 06:44:32;;;;;;;21.10;3.50;;;;;;;10.69;78.69;101278.84;5067502;28;20044;-68
2023/04/11 06:46:59;;;;;;;21.75;3.22;;;;;;;10.78;78.43;101282.53;5072630;28;20063;-66
2023/04/11 06:49:27;;;;;;;24.10;3.90;;;;;;;10.83;78.96;101296.22;5057369;28;20045;-66
2023/04/11 06:51:54;;;;;;;17.05;4.07;;;;;;;10.87;78.15;101291.75;5063033;28;20388;-66
2023/04/11 06:54:22;;;;;;;24.88;3.75;;;;;;;11.23;78.49;101284.50;5061150;28;20055;-66
2023/04/11 06:56:50;;;;;;;14.95;3.40;;;;;;;11.50;77.84;101283.72;5068088;28;20051;-66
2023/04/11 06:59:21;;;;;;;21.98;3.35;;;;;;;11.19;77.06;101299.22;5067509;28;20056;-64
2023/04/11 07:01:49;;;;;;;21.33;3.67;;;;;;;11.15;77.46;101295.41;5070287;28;20048;-65
2023/04/11 07:04:16;;;;;;;22.15;3.90;;;;;;;11.07;77.85;101302.44;5068958;28;20056;-66
2023/04/11 07:06:44;;;;;;;16.95;3.30;;;;;;;11.40;78.19;101294.13;5066621;28;20060;-66
2023/04/11 07:09:12;;;;;;;17.10;3.45;;;;;;;11.24;75.82;101302.66;5060837;28;20515;-65
2023/04/11 07:11:40;;;;;;;21.30;3.28;;;;;;;11.29;79.32;101308.13;5064195;28;20514;-66
2023/04/11 07:14:07;;;;;;;20.02;3.20;;;;;;;11.12;76.80;101318.09;5070667;28;20053;-64
2023/04/11 07:16:34;;;;;;;18.50;3.22;;;;;;;11.50;77.30;101310.47;5067023;28;20036;-62
2023/04/11 07:19:02;;;;;;;26.13;3.80;;;;;;;11.78;75.50;101312.16;5028134;28;20052;-65
2023/04/11 07:21:31;;;;;;;20.20;6.88;;;;;;;11.58;75.09;101305.06;5070091;28;20056;-64
2023/04/11 07:23:59;;;;;;;25.98;4.03;;;;;;;11.40;74.92;101303.22;5070242;28;20071;-64
2023/04/11 07:26:31;;;;;;;23.83;3.70;;;;;;;11.31;76.38;101302.28;5066727;28;20044;-65
2023/04/11 07:28:59;;;;;;;22.88;4.22;;;;;;;11.59;76.70;101298.44;5066478;28;20056;-63
2023/04/11 07:31:27;;;;;;;19.30;3.72;;;;;;;11.30;76.08;101295.94;5069088;28;20044;-63
2023/04/11 07:33:54;;;;;;;17.98;3.85;;;;;;;11.47;75.22;101289.84;5075622;28;20061;-64
2023/04/11 07:36:22;;;;;;;15.40;3.58;;;;;;;11.35;74.86;101289.50;5064031;28;20036;-64
2023/04/11 07:38:49;;;;;;;17.73;3.55;;;;;;;11.48;76.13;101285.13;5058509;28;20095;-66
2023/04/11 07:41:16;;;;;;;19.92;3.72;;;;;;;11.61;74.73;101292.63;5063835;28;20044;-64
2023/04/11 07:43:44;;;;;;;17.80;4.03;;;;;;;11.66;74.55;101292.53;5075147;28;20056;-65
2023/04/11 07:46:13;;;;;;;20.58;3.55;;;;;;;11.70;74.36;101293.56;5072937;28;20044;-64
2023/04/11 07:48:41;;;;;;;26.08;3.78;;;;;;;11.92;74.04;101290.88;5059280;28;20045;-64
2023/04/11 07:51:09;;;;;;;27.95;3.90;;;;;;;11.75;73.93;101293.47;5067178;28;20044;-62
2023/04/11 07:53:36;;;;;;;15.40;3.15;;;;;;;11.81;73.77;101293.03;5066744;28;20067;-65
2023/04/11 07:56:04;;;;;;;18.00;2.88;;;;;;;11.96;73.49;101294.69;5078369;28;20056;-65
2023/04/11 07:58:31;;;;;;;20.50;3.33;;;;;;;12.20;72.69;101295.25;5072895;28;20048;-65
2023/04/11 08:01:01;;;;;;;20.98;3.78;;;;;;;11.92;72.21;101277.91;5074042;28;20044;-65
2023/04/11 08:03:28;;;;;;;22.90;2.97;;;;;;;11.97;72.85;101290.78;5066322;28;20140;-64
2023/04/11 08:05:56;;;;;;;18.75;3.13;;;;;;;12.01;72.67;101291.81;5066248;28;20503;-64
2023/04/11 08:08:24;;;;;;;18.35;3.05;;;;;;;12.29;71.18;101291.44;5066515;28;20053;-65
2023/04/11 08:10:52;;;;;;;20.48;3.33;;;;;;;12.11;72.53;101311.75;5070323;28;20431;-64
2023/04/11 08:13:20;;;;;;;21.23;3.72;;;;;;;12.05;72.51;101306.59;5072767;28;20067;-65
2023/04/11 08:15:47;;;;;;;20.95;3.33;;;;;;;12.37;71.93;101311.97;5064016;28;20498;-64
2023/04/11 08:18:15;;;;;;;19.13;3.28;;;;;;;12.37;71.46;101321.09;5074734;28;20048;-65
2023/04/11 08:20:42;;;;;;;14.32;3.45;;;;;;;12.53;70.69;101310.50;5059394;28;20056;-64
2023/04/11 08:23:10;;;;;;;24.92;4.13;;;;;;;12.40;70.74;101312.19;5067399;28;20045;-65
2023/04/11 08:25:38;;;;;;;20.85;4.32;;;;;;;12.55;70.18;101305.50;5061646;28;20049;-64
2023/04/11 08:28:05;;;;;;;23.55;4.22;;;;;;;12.55;69.70;101299.97;5065422;28;20053;-64
2023/04/11 08:30:32;;;;;;;19.80;3.45;;;;;;;12.73;68.57;101301.72;5070454;28;20052;-65
2023/04/11 08:33:01;;;;;;;28.40;3.70;;;;;;;12.60;68.39;101296.25;5069209;28;20060;-62
2023/04/11 08:35:29;;;;;;;20.20;3.13;;;;;;;12.97;68.00;101298.66;5065976;28;20621;-65
2023/04/11 08:37:57;;;;;;;23.90;3.88;;;;;;;13.01;67.02;101311.53;5058759;28;20060;-65
2023/04/11 08:40:25;;;;;;;21.83;3.92;;;;;;;12.61;68.24;101311.69;5067635;28;20487;-65
2023/04/11 08:42:59;;;;;;;20.17;3.28;;;;;;;12.62;68.16;101314.16;5072766;28;20052;-66
2023/04/11 08:45:27;;;;;;;20.77;3.88;;;;;;;12.62;68.49;101314.16;5073674;28;20060;-65
2023/04/11 08:47:55;;;;;;;22.98;3.85;;;;;;;12.64;68.25;101305.56;5074612;28;20060;-64
2023/04/11 08:50:22;;;;;;;20.60;3.70;;;;;;;12.48;68.17;101315.34;5062357;28;20051;-64
2023/04/11 08:52:51;;;;;;;25.10;6.70;;;;;;;12.73;67.83;101307.25;5070403;28;20048;-65
2023/04/11 08:55:18;;;;;;;21.48;5.72;;;;;;;12.96;67.26;101310.84;5076279;28;20052;-66
2023/04/11 08:57:46;;;;;;;21.02;4.10;;;;;;;13.04;67.26;101316.44;5057961;28;20061;-66
2023/04/11 09:00:13;;;;;;;23.08;4.63;;;;;;;13.14;66.39;101318.16;5068655;28;20045;-65
2023/04/11 09:03:00;;;;;;;26.45;3.90;;;;;;;13.27;65.51;101314.47;5066864;28;20045;-65
2023/04/11 09:05:33;;;;;;;21.30;3.80;;;;;;;13.42;64.18;101317.66;5060695;28;20056;-64
2023/04/11 09:08:02;;;;;;;23.38;3.88;;;;;;;13.27;63.35;101300.66;5073962;28;20056;-65
2023/04/11 09:10:29;;;;;;;20.25;3.38;;;;;;;13.11;64.04;101305.75;5067177;28;20068;-65
2023/04/11 09:12:57;;;;;;;17.90;3.08;;;;;;;13.39;63.59;101301.69;5070837;28;20056;-65
2023/04/11 09:15:29;;;;;;;20.30;3.30;;;;;;;13.70;63.65;101303.63;5077441;28;20056;-65
2023/04/11 09:17:56;;;;;;;16.98;3.60;;;;;;;13.40;63.25;101310.81;5072461;28;20053;-65
2023/04/11 09:20:30;;;;;;;23.02;3.50;;;;;;;13.30;61.79;101298.06;5063467;28;20527;-66
2023/04/11 09:22:57;;;;;;;19.30;3.78;;;;;;;13.34;61.80;101304.59;5061679;28;20063;-65
2023/04/11 09:25:25;;;;;;;20.67;3.63;;;;;;;13.11;63.72;101296.66;5067165;28;20601;-65
2023/04/11 09:28:09;;;;;;;17.25;2.95;;;;;;;13.53;61.54;101302.41;5073391;28;20059;-65
2023/04/11 09:30:37;;;;;;;22.58;3.78;;;;;;;13.44;61.50;101298.78;5064335;28;20067;-65
2023/04/11 09:33:21;;;;;;;13.38;3.45;;;;;;;13.57;60.74;101283.22;5067131;28;20063;-65
2023/04/11 09:35:52;;;;;;;20.15;3.22;;;;;;;13.66;60.54;101297.09;5066592;28;20059;-64
2023/04/11 09:38:31;;;;;;;22.27;4.35;;;;;;;13.06;60.01;101297.59;5062604;28;20052;-66
2023/04/11 09:41:00;;;;;;;19.65;3.80;;;;;;;13.12;60.79;101298.28;5066932;28;20060;-66
2023/04/11 09:43:50;;;;;;;14.98;3.35;;;;;;;13.15;60.36;101295.72;5056674;28;20052;-66
2023/04/11 09:46:19;;;;;;;22.88;3.88;;;;;;;13.19;60.70;101288.41;5074331;28;20041;-64
2023/04/11 09:48:48;;;;;;;17.48;3.05;;;;;;;13.37;59.69;101300.41;5059856;28;20045;-65
2023/04/11 09:51:17;;;;;;;17.25;3.15;;;;;;;13.21;59.04;101296.41;5068215;28;20045;-66
2023/04/11 09:54:02;;;;;;;20.48;3.10;;;;;;;12.89;61.54;101288.34;5061380;28;20064;-66
2023/04/11 09:56:30;;;;;;;18.55;3.05;;;;;;;13.12;60.15;101290.81;5061247;28;20048;-63
2023/04/11 09:58:58;;;;;;;18.38;3.33;;;;;;;13.30;59.59;101294.50;5066828;28;20067;-65
2023/04/11 10:01:26;;;;;;;17.45;2.92;;;;;;;13.16;58.66;101289.03;5064313;28;20056;-64
2023/04/11 10:03:54;;;;;;;17.35;3.72;;;;;;;13.04;60.01;101297.09;5061088;28;20052;-63
2023/04/11 10:06:30;;;;;;;14.87;3.00;;;;;;;13.33;60.03;101302.16;5066662;28;20056;-65
2023/04/11 10:09:13;;;;;;;17.42;3.47;;;;;;;13.28;59.00;101294.00;5067667;28;20044;-66
2023/04/11 10:11:44;;;;;;;13.95;2.92;;;;;;;13.47;59.40;101295.41;5067874;28;20064;-64
2023/04/11 10:14:36;;;;;;;16.48;3.15;;;;;;;13.72;59.11;101304.13;5067031;28;20056;-69
2023/04/11 10:17:15;;;;;;;16.80;3.72;;;;;;;13.94;58.70;101304.84;5065094;28;20049;-65
2023/04/11 10:19:50;;;;;;;15.10;3.30;;;;;;;13.99;58.99;101292.81;5070716;28;20048;-63
2023/04/11 10:22:40;;;;;;;20.63;4.45;;;;;;;14.11;57.76;101274.41;5052522;28;20044;-61
2023/04/11 10:25:17;;;;;;;;;;;;;;;14.40;57.43;101273.84;5063607;28;20049;-63
2023/04/11 10:27:49;;;;;;;16.98;3.55;;;;;;;14.26;57.32;101268.44;5066963;28;19947;-62
2023/04/11 10:30:16;;;;;;;23.92;3.72;;;;;;;14.34;57.37;101264.03;5064896;28;20056;-64
2023/04/11 10:33:09;;;;;;;17.80;3.45;;;;;;;14.20;56.98;101280.78;5064683;28;20056;-64
2023/04/11 10:36:08;;;;;;;16.98;3.13;;;;;;;14.36;57.07;101278.41;5063922;28;20063;-64
2023/04/11 10:38:40;;;;;;;19.05;4.05;;;;;;;14.57;56.67;101273.84;5065714;28;20134;-64
2023/04/11 10:41:15;;;;;;;17.00;3.70;;;;;;;14.80;56.30;101268.94;5075453;28;20530;-68
2023/04/11 10:43:43;;;;;;;24.67;5.18;;;;;;;14.78;55.45;101258.16;5060275;28;20053;-64
2023/04/11 10:46:24;;;;;;;20.25;4.68;;;;;;;14.80;55.03;101247.56;5062726;28;20041;-65
2023/04/11 10:49:02;;;;;;;22.90;4.03;;;;;;;14.62;55.36;101248.72;5068618;28;20059;-64
2023/04/11 10:51:33;;;;;;;23.17;4.68;;;;;;;14.83;55.34;101258.00;5061640;28;20041;-64
2023/04/11 10:54:00;;;;;;;21.85;4.68;;;;;;;15.10;54.24;101260.38;5063504;28;20056;-65
2023/04/11 10:56:49;;;;;;;19.48;3.90;;;;;;;15.23;54.20;101259.38;5070975;28;20060;-67
2023/04/11 10:59:49;;;;;;;18.60;3.40;;;;;;;14.87;53.05;101244.28;5061974;28;20056;-66
2023/04/11 11:02:18;;;;;;;13.40;3.15;;;;;;;15.13;53.77;101245.81;5063471;28;20057;-66
2023/04/11 11:04:46;;;;;;;16.58;3.75;;;;;;;15.26;53.18;101250.38;5067200;28;20053;-67
2023/04/11 11:07:16;;;;;;;17.98;3.67;;;;;;;15.55;51.93;101233.78;5066698;28;20048;-66
2023/04/11 11:09:49;;;;;;;13.18;3.33;;;;;;;14.84;51.04;101229.09;5069486;28;20522;-66
2023/04/11 11:12:17;;;;;;;21.55;3.70;;;;;;;14.90;51.71;101215.88;5067444;28;20056;-65
2023/04/11 11:14:45;;;;;;;16.17;2.95;;;;;;;15.04;51.78;101205.41;5060381;28;20064;-65
2023/04/11 11:17:14;;;;;;;13.82;3.65;;;;;;;15.18;51.39;101200.44;5072510;28;20048;-68
2023/04/11 11:19:43;;;;;;;13.43;3.20;;;;;;;15.43;51.02;101211.47;5072484;28;20052;-66
2023/04/11 11:22:24;;;;;;;16.60;2.83;;;;;;;15.70;50.93;101199.09;5064734;28;20060;-66
2023/04/11 11:24:52;;;;;;;15.48;3.60;;;;;;;15.65;49.99;101197.31;5084167;28;20231;-66
2023/04/11 11:27:21;;;;;;;17.52;3.45;;;;;;;15.73;50.32;101187.28;5065969;28;20048;-69
2023/04/11 11:29:49;;;;;;;;;;;;;;;15.83;50.04;101180.53;5073762;28;20049;-65